createdAt,value
2022-12-04T00:01:23.938Z,3.61
2022-12-04T00:03:54.240Z,3.66
2022-12-04T00:06:24.478Z,3.67
2022-12-04T00:08:54.811Z,3.68
2022-12-04T00:11:25.439Z,3.77
2022-12-04T00:13:59.069Z,3.79
2022-12-04T00:16:26.854Z,3.66
2022-12-04T00:18:56.809Z,3.7
2022-12-04T00:21:27.134Z,3.65
2022-12-04T00:23:57.506Z,3.61
2022-12-04T00:26:27.717Z,3.66
2022-12-04T00:28:58.303Z,3.66
2022-12-04T00:31:28.473Z,3.6
2022-12-04T00:33:58.678Z,3.68
2022-12-04T00:36:29.463Z,3.72
2022-12-04T00:38:59.544Z,3.68
2022-12-04T00:41:30.266Z,3.67
2022-12-04T00:44:00.873Z,3.64
2022-12-04T00:46:31.220Z,3.66
2022-12-04T00:49:01.756Z,3.63
2022-12-04T00:51:32.391Z,3.67
2022-12-04T00:54:02.813Z,3.61
2022-12-04T00:56:33.185Z,3.7
2022-12-04T00:59:03.597Z,3.7
2022-12-04T01:01:34.053Z,3.81
2022-12-04T01:04:04.022Z,3.74
2022-12-04T01:06:34.109Z,3.78
2022-12-04T01:09:04.660Z,3.82
2022-12-04T01:11:35.352Z,3.75
2022-12-04T01:14:05.653Z,3.81
2022-12-04T01:16:36.056Z,3.79
2022-12-04T01:19:06.451Z,3.79
2022-12-04T01:21:36.649Z,3.72
2022-12-04T01:24:07.063Z,3.75
2022-12-04T01:26:37.955Z,3.85
2022-12-04T01:29:08.094Z,3.78
2022-12-04T01:31:38.442Z,3.68
2022-12-04T01:34:09.061Z,3.82
2022-12-04T01:36:39.657Z,3.77
2022-12-04T01:39:10.377Z,3.75
2022-12-04T01:41:41.364Z,3.78
2022-12-04T01:44:11.913Z,3.71
2022-12-04T01:46:42.608Z,3.8
2022-12-04T01:49:13.342Z,3.79
2022-12-04T01:51:43.450Z,3.78
2022-12-04T01:54:14.076Z,3.84
2022-12-04T01:56:44.607Z,3.83
2022-12-04T01:59:14.660Z,4.45
2022-12-04T02:01:45.375Z,3.85
2022-12-04T02:04:16.063Z,3.76
2022-12-04T02:06:46.887Z,3.78
2022-12-04T02:09:21.632Z,3.7
2022-12-04T02:11:48.412Z,3.63
2022-12-04T02:14:18.953Z,3.66
2022-12-04T02:16:49.838Z,3.66
2022-12-04T02:19:20.400Z,3.87
2022-12-04T02:21:51.058Z,3.73
2022-12-04T02:24:21.374Z,3.67
2022-12-04T02:26:52.217Z,3.87
2022-12-04T02:29:22.823Z,3.83
2022-12-04T02:31:53.057Z,3.84
2022-12-04T02:34:23.418Z,3.82
2022-12-04T02:36:54.102Z,3.79
2022-12-04T02:39:24.819Z,3.73
2022-12-04T02:41:55.783Z,3.82
2022-12-04T02:44:26.516Z,3.87
2022-12-04T02:46:57.349Z,4.02
2022-12-04T02:49:27.369Z,3.91
2022-12-04T02:51:57.936Z,3.85
2022-12-04T02:54:28.174Z,3.92
2022-12-04T02:56:58.895Z,3.91
2022-12-04T02:59:29.595Z,3.83
2022-12-04T03:02:00.020Z,3.83
2022-12-04T03:04:30.192Z,3.87
2022-12-04T03:07:01.166Z,3.84
2022-12-04T03:09:31.730Z,3.87
2022-12-04T03:12:02.754Z,3.9
2022-12-04T03:14:33.400Z,3.77
2022-12-04T03:17:03.817Z,3.89
2022-12-04T03:19:34.618Z,3.95
2022-12-04T03:22:05.036Z,3.81
2022-12-04T03:24:35.715Z,3.81
2022-12-04T03:27:06.489Z,3.77
2022-12-04T03:29:36.627Z,3.77
2022-12-04T03:32:07.277Z,3.85
2022-12-04T03:34:38.022Z,3.8
2022-12-04T03:37:08.217Z,3.72
2022-12-04T03:39:38.328Z,3.83
2022-12-04T03:42:09.245Z,3.92
2022-12-04T03:44:39.319Z,3.84
2022-12-04T03:47:10.081Z,3.71
2022-12-04T03:49:42.545Z,3.83
2022-12-04T03:52:11.134Z,3.86
2022-12-04T03:54:40.901Z,3.89
2022-12-04T03:57:11.187Z,3.82
2022-12-04T03:59:41.994Z,3.79
2022-12-04T04:02:12.136Z,3.86
2022-12-04T04:04:42.151Z,4.01
2022-12-04T04:07:12.507Z,3.93
2022-12-04T04:09:43.172Z,3.98
2022-12-04T04:12:14.008Z,3.92
2022-12-04T04:14:44.359Z,3.98
2022-12-04T04:17:14.574Z,3.88
2022-12-04T04:19:44.762Z,3.87
2022-12-04T04:22:15.102Z,3.86
2022-12-04T04:24:45.792Z,3.87
2022-12-04T04:27:16.171Z,3.94
2022-12-04T04:29:52.013Z,3.94
2022-12-04T04:32:17.445Z,3.94
2022-12-04T04:34:47.550Z,3.86
2022-12-04T04:37:17.963Z,3.9
2022-12-04T04:39:48.450Z,3.85
2022-12-04T04:42:19.356Z,3.97
2022-12-04T04:44:49.737Z,3.99
2022-12-04T04:47:20.417Z,3.89
2022-12-04T04:49:50.695Z,3.84
2022-12-04T04:52:21.208Z,3.9
2022-12-04T04:54:51.905Z,3.82
2022-12-04T04:57:22.297Z,3.76
2022-12-04T04:59:53.686Z,3.88
2022-12-04T05:02:24.006Z,3.91
2022-12-04T05:04:54.084Z,3.81
2022-12-04T05:07:24.274Z,3.83
2022-12-04T05:09:55.091Z,3.78
2022-12-04T05:12:25.168Z,3.97
2022-12-04T05:14:55.842Z,4.01
2022-12-04T05:17:26.259Z,4.02
2022-12-04T05:19:56.761Z,3.92
2022-12-04T05:22:26.182Z,3.82
2022-12-04T05:24:56.588Z,3.76
2022-12-04T05:27:27.426Z,3.95
2022-12-04T05:29:58.127Z,4.09
2022-12-04T05:32:28.510Z,4.11
2022-12-04T05:34:59.131Z,3.94
2022-12-04T05:37:29.864Z,3.91
2022-12-04T05:40:00.180Z,3.91
2022-12-04T05:42:30.554Z,3.92
2022-12-04T05:45:01.051Z,3.96
2022-12-04T05:47:31.757Z,4.01
2022-12-04T05:50:02.501Z,3.86
2022-12-04T05:52:32.835Z,3.85
2022-12-04T05:55:02.948Z,4.06
2022-12-04T05:57:33.825Z,4.02
2022-12-04T06:00:03.843Z,4.05
2022-12-04T06:02:34.122Z,4.1
2022-12-04T06:05:04.214Z,4.15
2022-12-04T06:07:34.250Z,4.05
2022-12-04T06:10:04.874Z,4.15
2022-12-04T06:12:35.785Z,4.02
2022-12-04T06:15:05.976Z,4.04
2022-12-04T06:17:36.040Z,4.06
2022-12-04T06:20:11.476Z,3.96
2022-12-04T06:22:37.245Z,3.77
2022-12-04T06:25:07.510Z,4.12
2022-12-04T06:27:37.629Z,4.03
2022-12-04T06:30:07.742Z,3.99
2022-12-04T06:32:37.892Z,4
2022-12-04T06:35:08.589Z,4.02
2022-12-04T06:37:39.046Z,3.86
2022-12-04T06:40:09.800Z,4.06
2022-12-04T06:42:40.188Z,4.13
2022-12-04T06:45:10.315Z,4.15
2022-12-04T06:47:40.705Z,4.23
2022-12-04T06:50:10.899Z,4.3
2022-12-04T06:52:41.339Z,4.23
2022-12-04T06:55:11.814Z,4.3
2022-12-04T06:57:42.119Z,4.35
2022-12-04T07:00:12.093Z,4.27
2022-12-04T07:02:42.391Z,4.33
2022-12-04T07:05:13.034Z,4.31
2022-12-04T07:07:43.970Z,4.37
2022-12-04T07:10:14.652Z,4.42
2022-12-04T07:12:45.191Z,4.3
2022-12-04T07:15:15.953Z,4.36
2022-12-04T07:17:46.529Z,4.36
2022-12-04T07:20:16.954Z,4.35
2022-12-04T07:22:47.005Z,4.35
2022-12-04T07:25:17.409Z,4.36
2022-12-04T07:27:48.196Z,4.34
2022-12-04T07:30:18.990Z,4.28
2022-12-04T07:32:49.408Z,4.45
2022-12-04T07:35:19.440Z,4.45
2022-12-04T07:37:50.046Z,4.45
2022-12-04T07:40:20.696Z,4.81
2022-12-04T07:42:51.519Z,4.45
2022-12-04T07:45:21.893Z,4.42
2022-12-04T07:47:52.075Z,4.41
2022-12-04T07:50:22.205Z,4.46
2022-12-04T07:52:52.827Z,4.41
2022-12-04T07:55:23.602Z,4.44
2022-12-04T07:57:54.008Z,4.48
2022-12-04T08:00:24.601Z,4.48
2022-12-04T08:02:55.233Z,4.39
2022-12-04T08:05:25.855Z,4.39
2022-12-04T08:07:56.264Z,4.25
2022-12-04T08:10:26.330Z,4.43
2022-12-04T08:12:56.415Z,4.58
2022-12-04T08:15:26.705Z,4.45
2022-12-04T08:17:57.476Z,4.43
2022-12-04T08:20:28.201Z,4.34
2022-12-04T08:22:58.330Z,4.4
2022-12-04T08:25:28.425Z,4.31
2022-12-04T08:27:58.512Z,4.56
2022-12-04T08:30:29.304Z,4.58
2022-12-04T08:32:59.864Z,4.43
2022-12-04T08:35:29.822Z,4.49
2022-12-04T08:38:00.498Z,4.49
2022-12-04T08:40:31.201Z,4.49
2022-12-04T08:43:01.902Z,4.47
2022-12-04T08:45:32.621Z,4.56
2022-12-04T08:48:03.019Z,4.49
2022-12-04T08:50:33.411Z,4.51
2022-12-04T08:53:03.979Z,4.29
2022-12-04T08:55:34.001Z,4.19
2022-12-04T08:58:04.859Z,4.27
2022-12-04T09:00:35.181Z,4.5
2022-12-04T09:03:05.772Z,4.37
2022-12-04T09:05:36.131Z,4.56
2022-12-04T09:08:06.315Z,4.63
2022-12-04T09:10:36.989Z,4.52
2022-12-04T09:13:07.758Z,4.47
2022-12-04T09:15:38.133Z,4.45
2022-12-04T09:18:08.361Z,4.47
2022-12-04T09:20:38.759Z,4.48
2022-12-04T09:23:08.904Z,4.26
2022-12-04T09:25:39.203Z,4.31
2022-12-04T09:28:09.974Z,4.34
2022-12-04T09:30:40.269Z,4.38
2022-12-04T09:33:10.533Z,4.18
2022-12-04T09:35:41.066Z,4.26
2022-12-04T09:38:11.938Z,4.3
2022-12-04T09:40:42.553Z,4.35
2022-12-04T09:43:13.023Z,4.31
2022-12-04T09:45:43.763Z,4.22
2022-12-04T09:48:14.356Z,4.1
2022-12-04T09:50:44.427Z,4.29
2022-12-04T09:53:14.865Z,4.39
2022-12-04T09:55:45.341Z,4.26
2022-12-04T09:58:15.636Z,4.21
2022-12-04T10:00:46.029Z,4.22
2022-12-04T10:03:17.083Z,4.31
2022-12-04T10:05:47.546Z,4.31
2022-12-04T10:08:18.407Z,4.22
2022-12-04T10:10:49.063Z,4.28
2022-12-04T10:13:19.738Z,4.2
2022-12-04T10:15:50.350Z,4.07
2022-12-04T10:18:20.554Z,4.31
2022-12-04T10:20:50.667Z,4.14
2022-12-04T10:23:21.291Z,4.24
2022-12-04T10:25:51.391Z,4.22
2022-12-04T10:28:22.090Z,4.2
2022-12-04T10:30:52.953Z,4.32
2022-12-04T10:33:23.236Z,4.28
2022-12-04T10:35:53.634Z,4.2
2022-12-04T10:38:24.195Z,4.19
2022-12-04T10:40:54.769Z,4.13
2022-12-04T10:43:24.883Z,4.04
2022-12-04T10:45:55.642Z,4.02
2022-12-04T10:48:26.598Z,4.04
2022-12-04T10:50:57.402Z,4.03
2022-12-04T10:53:27.767Z,4.04
2022-12-04T10:55:58.284Z,3.97
2022-12-04T10:58:28.669Z,4.68
2022-12-04T11:00:59.072Z,3.89
2022-12-04T11:03:29.817Z,3.92
2022-12-04T11:06:00.438Z,3.98
2022-12-04T11:08:31.203Z,3.85
2022-12-04T11:11:01.307Z,4.02
2022-12-04T11:13:31.996Z,4.07
2022-12-04T11:16:02.398Z,4.08
2022-12-04T11:18:33.161Z,3.9
2022-12-04T11:21:03.625Z,3.95
2022-12-04T11:23:34.409Z,3.97
2022-12-04T11:26:06.462Z,4.03
2022-12-04T11:28:42.113Z,3.89
2022-12-04T11:31:06.636Z,3.9
2022-12-04T11:33:37.358Z,3.77
2022-12-04T11:36:07.625Z,3.74
2022-12-04T11:38:37.695Z,3.92
2022-12-04T11:41:07.632Z,3.84
2022-12-04T11:43:37.799Z,3.95
2022-12-04T11:46:08.397Z,3.89
2022-12-04T11:48:38.862Z,3.92
2022-12-04T11:51:09.561Z,4.01
2022-12-04T11:53:40.147Z,3.98
2022-12-04T11:56:10.702Z,4.09
2022-12-04T11:58:40.771Z,4.08
2022-12-04T12:01:11.127Z,3.99
2022-12-04T12:03:41.617Z,4.01
2022-12-04T12:06:11.974Z,3.89
2022-12-04T12:08:42.545Z,3.91
2022-12-04T12:11:13.160Z,3.89
2022-12-04T12:13:44.108Z,3.93
2022-12-04T12:16:14.348Z,3.97
2022-12-04T12:18:44.653Z,3.87
2022-12-04T12:21:15.370Z,3.81
2022-12-04T12:23:45.915Z,3.95
2022-12-04T12:26:16.440Z,3.83
2022-12-04T12:28:46.757Z,3.85
2022-12-04T12:31:17.314Z,3.82
2022-12-04T12:33:48.077Z,3.88
2022-12-04T12:36:18.586Z,3.83
2022-12-04T12:38:49.405Z,3.85
2022-12-04T12:41:19.701Z,3.88
2022-12-04T12:43:50.412Z,3.84
2022-12-04T12:46:21.286Z,3.98
2022-12-04T12:48:57.989Z,3.9
2022-12-04T12:51:30.600Z,4.23
2022-12-04T12:53:52.495Z,3.98
2022-12-04T12:56:22.891Z,4.26
2022-12-04T12:58:53.446Z,3.99
2022-12-04T13:01:23.896Z,4.16
2022-12-04T13:03:54.154Z,3.88
2022-12-04T13:06:24.702Z,3.92
2022-12-04T13:08:55.487Z,3.87
2022-12-04T13:11:26.166Z,3.96
2022-12-04T13:13:56.574Z,4.06
2022-12-04T13:16:27.124Z,4.19
2022-12-04T13:18:57.706Z,3.99
2022-12-04T13:21:28.405Z,3.97
2022-12-04T13:23:58.516Z,3.86
2022-12-04T13:26:28.720Z,3.75
2022-12-04T13:28:59.272Z,3.6
2022-12-04T13:31:29.434Z,3.66
2022-12-04T13:33:59.924Z,3.73
2022-12-04T13:36:30.116Z,3.75
2022-12-04T13:39:00.947Z,4.11
2022-12-04T13:41:30.989Z,4.03
2022-12-04T13:44:06.931Z,3.97
2022-12-04T13:46:31.758Z,4.02
2022-12-04T13:49:02.144Z,4.04
2022-12-04T13:51:32.389Z,4.07
2022-12-04T13:54:03.305Z,4.31
2022-12-04T13:56:33.869Z,4.29
2022-12-04T13:59:04.285Z,4.4
2022-12-04T14:01:34.961Z,4.3
2022-12-04T14:04:05.435Z,4.28
2022-12-04T14:06:35.904Z,4.29
2022-12-04T14:09:05.983Z,4.32
2022-12-04T14:11:36.543Z,4.2
2022-12-04T14:14:08.094Z,4.21
2022-12-04T14:16:37.117Z,4.25
2022-12-04T14:19:07.384Z,4.31
2022-12-04T14:21:37.866Z,4.24
2022-12-04T14:24:08.326Z,4.34
2022-12-04T14:27:09.579Z,4.22
2022-12-04T14:29:09.163Z,4.2
2022-12-04T14:31:39.189Z,4.16
2022-12-04T14:34:09.215Z,4.27
2022-12-04T14:36:39.245Z,4.19
2022-12-04T14:39:09.825Z,4.14
2022-12-04T14:41:43.768Z,4.18
2022-12-04T14:44:11.143Z,4.21
2022-12-04T14:46:41.626Z,4.2
2022-12-04T14:49:11.619Z,4.47
2022-12-04T14:51:42.484Z,4.2
2022-12-04T14:54:12.609Z,4.32
2022-12-04T14:56:42.840Z,4.3
2022-12-04T14:59:13.746Z,4.36
2022-12-04T15:01:44.339Z,4.32
2022-12-04T15:04:14.373Z,4.34
2022-12-04T15:06:44.886Z,4.23
2022-12-04T15:09:15.147Z,4.27
2022-12-04T15:11:45.710Z,4.35
2022-12-04T15:14:15.921Z,4.27
2022-12-04T15:16:46.514Z,4.25
2022-12-04T15:19:17.312Z,4.31
2022-12-04T15:21:47.697Z,4.25
2022-12-04T15:24:17.855Z,4.23
2022-12-04T15:26:48.121Z,4.37
2022-12-04T15:29:18.976Z,4.36
2022-12-04T15:31:49.168Z,4.56
2022-12-04T15:34:19.335Z,4.43
2022-12-04T15:36:49.703Z,4.44
2022-12-04T15:39:20.194Z,4.41
2022-12-04T15:41:50.842Z,4.86
2022-12-04T15:44:21.711Z,4.42
2022-12-04T15:46:52.426Z,4.27
2022-12-04T15:49:22.669Z,4.13
2022-12-04T15:51:52.727Z,4.24
2022-12-04T15:54:22.940Z,4.23
2022-12-04T15:56:53.233Z,4.36
2022-12-04T15:59:23.421Z,4.23
2022-12-04T16:01:53.975Z,4.32
2022-12-04T16:04:24.659Z,4.39
2022-12-04T16:06:54.680Z,4.34
2022-12-04T16:09:25.456Z,4.58
2022-12-04T16:11:55.711Z,4.52
2022-12-04T16:14:26.745Z,4.47
2022-12-04T16:17:01.227Z,4.53
2022-12-04T16:19:27.162Z,4.53
2022-12-04T16:21:57.333Z,4.39
2022-12-04T16:24:27.398Z,4.54
2022-12-04T16:26:57.440Z,4.5
2022-12-04T16:29:28.304Z,4.41
2022-12-04T16:32:02.994Z,4.43
2022-12-04T16:34:28.691Z,4.47
2022-12-04T16:36:58.894Z,4.54
2022-12-04T16:39:29.473Z,4.43
2022-12-04T16:42:00.082Z,4.58
2022-12-04T16:44:30.267Z,4.65
2022-12-04T16:47:00.530Z,4.57
2022-12-04T16:49:31.260Z,4.5
2022-12-04T16:52:01.887Z,4.58
2022-12-04T16:54:32.554Z,4.6
2022-12-04T16:57:02.944Z,4.42
2022-12-04T16:59:33.676Z,4.5
2022-12-04T17:02:04.500Z,4.57
2022-12-04T17:04:35.349Z,4.48
2022-12-04T17:07:05.148Z,4.41
2022-12-04T17:09:35.794Z,4.41
2022-12-04T17:12:06.190Z,4.55
2022-12-04T17:14:36.287Z,4.57
2022-12-04T17:17:06.874Z,4.66
2022-12-04T17:19:37.220Z,4.62
2022-12-04T17:22:07.101Z,4.36
2022-12-04T17:24:40.614Z,4.43
2022-12-04T17:27:08.113Z,4.55
2022-12-04T17:29:38.180Z,4.55
2022-12-04T17:32:08.782Z,4.6
2022-12-04T17:34:39.528Z,4.55
2022-12-04T17:37:10.465Z,4.66
2022-12-04T17:39:40.927Z,4.65
2022-12-04T17:42:11.138Z,4.85
2022-12-04T17:44:41.637Z,4.97
2022-12-04T17:47:12.579Z,5.91
2022-12-04T17:49:42.849Z,4.87
2022-12-04T17:52:13.675Z,4.52
2022-12-04T17:54:44.536Z,4.18
2022-12-04T17:57:14.692Z,4.4
2022-12-04T17:59:45.146Z,4.42
2022-12-04T18:02:15.585Z,4.47
2022-12-04T18:04:46.234Z,4.4
2022-12-04T18:07:17.014Z,4.62
2022-12-04T18:09:47.184Z,4.67
2022-12-04T18:12:17.884Z,4.6
2022-12-04T18:14:47.916Z,4.62
2022-12-04T18:17:18.012Z,4.64
2022-12-04T18:19:48.166Z,4.53
2022-12-04T18:22:18.177Z,4.52
2022-12-04T18:24:48.451Z,4.52
2022-12-04T18:27:18.806Z,4.71
2022-12-04T18:29:49.516Z,4.69
2022-12-04T18:32:20.094Z,4.9
2022-12-04T18:34:50.640Z,4.7
2022-12-04T18:37:21.142Z,4.64
2022-12-04T18:39:51.527Z,4.79
2022-12-04T18:42:21.784Z,4.66
2022-12-04T18:44:52.130Z,4.76
2022-12-04T18:47:22.335Z,4.63
2022-12-04T18:49:53.065Z,4.69
2022-12-04T18:52:23.722Z,4.56
2022-12-04T18:54:54.280Z,4.66
2022-12-04T18:57:24.297Z,4.61
2022-12-04T18:59:54.979Z,4.65
2022-12-04T19:02:25.418Z,4.5
2022-12-04T19:04:55.948Z,4.43
2022-12-04T19:07:26.424Z,4.45
2022-12-04T19:10:21.610Z,4.67
2022-12-04T19:12:27.463Z,4.66
2022-12-04T19:14:57.957Z,4.78
2022-12-04T19:17:28.494Z,4.69
2022-12-04T19:19:58.872Z,4.52
2022-12-04T19:22:28.636Z,4.51
2022-12-04T19:24:58.755Z,4.48
2022-12-04T19:27:28.964Z,4.49
2022-12-04T19:29:59.297Z,4.57
2022-12-04T19:32:29.847Z,4.66
2022-12-04T19:35:00.665Z,4.48
2022-12-04T19:37:31.153Z,4.55
2022-12-04T19:40:01.531Z,4.78
2022-12-04T19:42:32.293Z,4.72
2022-12-04T19:45:02.525Z,4.93
2022-12-04T19:47:32.898Z,5.26
2022-12-04T19:50:03.340Z,5.31
2022-12-04T19:52:33.494Z,5.17
2022-12-04T19:55:03.936Z,4.94
2022-12-04T19:57:34.400Z,4.65
2022-12-04T20:00:04.891Z,4.46
2022-12-04T20:02:35.726Z,4.52
2022-12-04T20:05:05.722Z,4.44
2022-12-04T20:07:36.156Z,4.55
2022-12-04T20:10:06.806Z,4.85
2022-12-04T20:12:37.652Z,4.85
2022-12-04T20:15:07.741Z,5.01
2022-12-04T20:17:38.453Z,4.89
2022-12-04T20:20:08.541Z,4.98
2022-12-04T20:22:39.388Z,4.95
2022-12-04T20:25:09.405Z,5.06
2022-12-04T20:27:39.933Z,5.06
2022-12-04T20:30:10.597Z,4.95
2022-12-04T20:32:41.166Z,5.08
2022-12-04T20:35:11.748Z,5.1
2022-12-04T20:37:42.154Z,4.88
2022-12-04T20:40:12.154Z,4.95
2022-12-04T20:42:42.743Z,4.95
2022-12-04T20:45:12.814Z,4.93
2022-12-04T20:47:43.260Z,4.9
2022-12-04T20:50:13.485Z,4.91
2022-12-04T20:52:44.146Z,4.83
2022-12-04T20:55:14.617Z,4.87
2022-12-04T20:57:44.901Z,4.81
2022-12-04T21:00:15.587Z,4.82
2022-12-04T21:02:45.625Z,4.98
2022-12-04T21:05:16.356Z,4.81
2022-12-04T21:07:47.037Z,4.85
2022-12-04T21:10:17.035Z,4.77
2022-12-04T21:12:47.938Z,4.73
2022-12-04T21:15:18.507Z,4.75
2022-12-04T21:17:48.921Z,4.67
2022-12-04T21:20:19.324Z,4.64
2022-12-04T21:22:49.848Z,4.66
2022-12-04T21:25:20.133Z,4.7
2022-12-04T21:27:50.518Z,4.59
2022-12-04T21:30:20.719Z,4.7
2022-12-04T21:32:51.253Z,4.74
2022-12-04T21:35:21.950Z,4.6
2022-12-04T21:37:52.005Z,4.78
2022-12-04T21:40:22.633Z,4.82
2022-12-04T21:42:53.011Z,4.87
2022-12-04T21:45:23.545Z,5
2022-12-04T21:47:54.245Z,5
2022-12-04T21:50:24.750Z,4.91
2022-12-04T21:52:55.425Z,4.84
2022-12-04T21:55:25.853Z,4.91
2022-12-04T21:57:56.320Z,4.97
2022-12-04T22:00:26.927Z,4.78
2022-12-04T22:02:57.020Z,4.79
2022-12-04T22:05:27.719Z,4.76
2022-12-04T22:07:58.496Z,4.77
2022-12-04T22:10:28.507Z,4.76
2022-12-04T22:12:58.983Z,4.53
2022-12-04T22:15:29.171Z,4.7
2022-12-04T22:17:59.445Z,4.68
2022-12-04T22:20:29.856Z,4.87
2022-12-04T22:23:00.591Z,4.92
2022-12-04T22:25:30.769Z,5.77
2022-12-04T22:28:01.123Z,4.74
2022-12-04T22:30:31.896Z,4.39
2022-12-04T22:33:02.732Z,4.38
2022-12-04T22:35:33.429Z,4.29
2022-12-04T22:38:03.792Z,4.46
2022-12-04T22:40:34.268Z,4.5
2022-12-04T22:43:05.099Z,4.54
2022-12-04T22:45:35.675Z,4.62
2022-12-04T22:48:06.353Z,4.62
2022-12-04T22:50:36.888Z,4.7
2022-12-04T22:53:07.663Z,4.87
2022-12-04T22:55:37.889Z,4.72
2022-12-04T22:58:08.596Z,4.71
2022-12-04T23:00:38.959Z,4.77
2022-12-04T23:03:09.366Z,4.77
2022-12-04T23:05:39.636Z,4.83
2022-12-04T23:08:10.106Z,4.72
2022-12-04T23:10:40.167Z,4.79
2022-12-04T23:13:10.833Z,4.77
2022-12-04T23:15:41.636Z,4.74
2022-12-04T23:18:12.472Z,4.82
2022-12-04T23:20:42.818Z,4.76
2022-12-04T23:23:13.060Z,4.76
2022-12-04T23:25:43.478Z,4.7
2022-12-04T23:28:14.201Z,4.71
2022-12-04T23:30:44.623Z,4.7
2022-12-04T23:33:15.523Z,4.86
2022-12-04T23:35:45.587Z,4.74
2022-12-04T23:38:15.736Z,4.69
2022-12-04T23:40:46.140Z,4.76
2022-12-04T23:43:16.296Z,4.68
2022-12-04T23:45:46.789Z,4.73
2022-12-04T23:48:17.367Z,4.86
2022-12-04T23:50:47.999Z,4.85
2022-12-04T23:53:18.519Z,4.61
2022-12-04T23:55:49.180Z,4.66
2022-12-04T23:58:19.179Z,4.77
